createdAt,value
2023-04-09T00:01:11.430Z,99.90
2023-04-09T00:03:42.415Z,99.90
2023-04-09T00:06:15.146Z,99.90
2023-04-09T00:08:48.126Z,99.90
2023-04-09T00:11:18.198Z,99.90
2023-04-09T00:13:48.340Z,99.90
2023-04-09T00:16:18.380Z,99.90
2023-04-09T00:18:48.983Z,99.90
2023-04-09T00:21:19.288Z,99.90
2023-04-09T00:23:52.097Z,99.90
2023-04-09T00:26:24.414Z,99.90
2023-04-09T00:28:54.442Z,99.90
2023-04-09T00:31:24.518Z,99.90
2023-04-09T00:33:54.432Z,99.90
2023-04-09T00:36:26.663Z,99.90
2023-04-09T00:39:00.237Z,99.90
2023-04-09T00:41:30.306Z,99.90
2023-04-09T00:44:00.442Z,99.90
2023-04-09T00:46:30.526Z,99.90
2023-04-09T00:49:01.487Z,99.90
2023-04-09T00:51:31.712Z,99.90
2023-04-09T00:54:04.294Z,99.90
2023-04-09T00:56:34.648Z,99.90
2023-04-09T00:59:05.861Z,99.90
2023-04-09T01:01:36.391Z,99.90
2023-04-09T01:04:07.244Z,99.90
2023-04-09T01:06:45.962Z,99.90
2023-04-09T01:09:27.940Z,99.90
2023-04-09T01:12:09.169Z,99.90
2023-04-09T01:14:44.548Z,99.90
2023-04-09T01:17:22.057Z,99.90
2023-04-09T01:20:12.206Z,99.90
2023-04-09T01:23:00.658Z,99.90
2023-04-09T01:25:46.724Z,99.90
2023-04-09T01:28:22.510Z,99.90
2023-04-09T01:30:59.204Z,99.90
2023-04-09T01:33:32.585Z,99.90
2023-04-09T01:36:04.547Z,99.90
2023-04-09T01:38:36.563Z,99.90
2023-04-09T01:41:07.393Z,99.90
2023-04-09T01:43:41.260Z,99.90
2023-04-09T01:46:12.498Z,99.90
2023-04-09T01:48:43.059Z,99.90
2023-04-09T01:51:14.325Z,99.90
2023-04-09T01:53:45.042Z,99.90
2023-04-09T01:56:15.389Z,99.90
2023-04-09T01:58:48.391Z,99.90
2023-04-09T02:01:36.546Z,99.90
2023-04-09T02:04:12.956Z,99.90
2023-04-09T02:06:48.461Z,99.90
2023-04-09T02:09:21.587Z,99.90
2023-04-09T02:11:53.772Z,99.90
2023-04-09T02:14:28.935Z,99.90
2023-04-09T02:16:59.551Z,99.90
2023-04-09T02:19:42.309Z,99.90
2023-04-09T02:22:12.786Z,99.90
2023-04-09T02:24:43.497Z,99.90
2023-04-09T02:27:14.241Z,99.90
2023-04-09T02:29:47.765Z,99.90
2023-04-09T02:32:18.056Z,99.90
2023-04-09T02:34:48.755Z,99.90
2023-04-09T02:37:18.731Z,99.90
2023-04-09T02:39:50.724Z,99.90
2023-04-09T02:42:20.774Z,99.90
2023-04-09T02:44:53.428Z,99.90
2023-04-09T02:47:23.769Z,99.90
2023-04-09T02:49:53.805Z,99.90
2023-04-09T02:52:25.241Z,99.90
2023-04-09T02:54:55.770Z,99.90
2023-04-09T02:57:25.778Z,99.90
2023-04-09T02:59:58.606Z,99.90
2023-04-09T03:02:29.068Z,99.90
2023-04-09T03:04:59.200Z,99.90
2023-04-09T03:07:29.493Z,99.90
2023-04-09T03:09:59.836Z,99.90
2023-04-09T03:12:29.784Z,99.90
2023-04-09T03:15:02.513Z,99.90
2023-04-09T03:17:32.755Z,99.90
2023-04-09T03:20:02.755Z,99.90
2023-04-09T03:22:39.742Z,99.90
2023-04-09T03:25:22.096Z,99.90
2023-04-09T03:27:55.732Z,99.90
2023-04-09T03:30:48.630Z,99.90
2023-04-09T03:33:20.033Z,99.90
2023-04-09T03:36:04.281Z,99.90
2023-04-09T03:38:54.939Z,99.90
2023-04-09T03:41:30.355Z,99.90
2023-04-09T03:44:03.059Z,99.90
2023-04-09T03:46:42.443Z,99.90
2023-04-09T03:49:16.653Z,99.90
2023-04-09T03:51:47.956Z,99.90
2023-04-09T03:54:18.612Z,99.90
2023-04-09T03:56:49.540Z,99.90
2023-04-09T03:59:24.233Z,99.90
2023-04-09T04:01:57.601Z,99.90
2023-04-09T04:04:28.874Z,99.90
2023-04-09T04:07:01.212Z,99.90
2023-04-09T04:09:40.873Z,99.90
2023-04-09T04:12:15.383Z,99.90
2023-04-09T04:15:04.178Z,99.90
2023-04-09T04:17:59.504Z,99.90
2023-04-09T04:20:41.784Z,99.90
2023-04-09T04:23:15.904Z,99.90
2023-04-09T04:25:54.867Z,99.90
2023-04-09T04:28:31.895Z,99.90
2023-04-09T04:31:02.746Z,99.90
2023-04-09T04:33:38.691Z,99.90
2023-04-09T04:36:15.254Z,99.90
2023-04-09T04:38:50.816Z,99.90
2023-04-09T04:41:29.583Z,99.90
2023-04-09T04:44:11.207Z,99.90
2023-04-09T04:46:41.718Z,99.90
2023-04-09T04:49:14.306Z,99.90
2023-04-09T04:51:49.969Z,99.90
2023-04-09T04:54:20.759Z,99.90
2023-04-09T04:56:57.436Z,99.90
2023-04-09T04:59:41.880Z,99.90
2023-04-09T05:02:14.344Z,99.90
2023-04-09T05:05:05.687Z,99.90
2023-04-09T05:07:41.852Z,99.90
2023-04-09T05:10:13.424Z,99.90
2023-04-09T05:12:45.778Z,99.90
2023-04-09T05:15:22.869Z,99.90
2023-04-09T05:17:53.113Z,99.90
2023-04-09T05:20:26.023Z,99.90
2023-04-09T05:23:06.321Z,99.90
2023-04-09T05:25:42.740Z,99.90
2023-04-09T05:28:21.038Z,99.90
2023-04-09T05:30:56.341Z,99.90
2023-04-09T05:33:26.768Z,99.90
2023-04-09T05:35:59.653Z,99.90
2023-04-09T05:38:30.037Z,99.90
2023-04-09T05:41:02.374Z,99.90
2023-04-09T05:43:32.903Z,99.90
2023-04-09T05:46:03.078Z,99.90
2023-04-09T05:48:33.178Z,99.90
2023-04-09T05:51:07.610Z,99.90
2023-04-09T05:53:37.723Z,99.90
2023-04-09T05:56:16.378Z,99.90
2023-04-09T05:58:55.784Z,99.90
2023-04-09T06:01:26.046Z,99.90
2023-04-09T06:03:58.433Z,99.90
2023-04-09T06:06:34.537Z,99.90
2023-04-09T06:09:05.003Z,99.90
2023-04-09T06:11:35.633Z,99.90
2023-04-09T06:14:05.812Z,99.90
2023-04-09T06:16:36.684Z,99.90
2023-04-09T06:19:06.749Z,99.90
2023-04-09T06:21:40.813Z,99.10
2023-04-09T06:24:10.850Z,98.10
2023-04-09T06:26:40.961Z,99.20
2023-04-09T06:29:10.993Z,99.60
2023-04-09T06:31:41.141Z,98.90
2023-04-09T06:34:11.343Z,98.40
2023-04-09T06:36:44.700Z,97.90
2023-04-09T06:39:14.826Z,99.10
2023-04-09T06:41:44.925Z,97.30
2023-04-09T06:44:27.259Z,97.40
2023-04-09T06:46:57.269Z,95.90
2023-04-09T06:49:27.376Z,96.30
2023-04-09T06:52:00.075Z,95.20
2023-04-09T06:54:30.201Z,94.80
2023-04-09T06:57:00.181Z,93.90
2023-04-09T06:59:30.276Z,94.20
2023-04-09T07:02:00.761Z,92.50
2023-04-09T07:04:31.140Z,92.50
2023-04-09T07:07:03.964Z,91.90
2023-04-09T07:09:34.273Z,93.40
2023-04-09T07:12:04.648Z,92.60
2023-04-09T07:14:34.701Z,91.90
2023-04-09T07:17:05.018Z,91.70
2023-04-09T07:19:35.030Z,91.00
2023-04-09T07:22:09.878Z,91.60
2023-04-09T07:24:39.814Z,91.00
2023-04-09T07:27:10.889Z,91.60
2023-04-09T07:29:41.547Z,91.90
2023-04-09T07:32:11.744Z,92.80
2023-04-09T07:34:43.874Z,91.70
2023-04-09T07:37:17.044Z,93.10
2023-04-09T07:39:47.705Z,92.00
2023-04-09T07:42:18.154Z,92.50
2023-04-09T07:44:48.191Z,93.80
2023-04-09T07:47:18.544Z,94.30
2023-04-09T07:49:48.627Z,93.70
2023-04-09T07:52:21.311Z,93.40
2023-04-09T07:54:51.373Z,91.40
2023-04-09T07:57:21.309Z,92.60
2023-04-09T07:59:51.372Z,92.80
2023-04-09T08:02:22.177Z,91.90
2023-04-09T08:04:52.439Z,91.20
2023-04-09T08:07:25.516Z,91.30
2023-04-09T08:09:55.651Z,89.70
2023-04-09T08:12:26.058Z,90.00
2023-04-09T08:14:56.281Z,87.30
2023-04-09T08:17:26.553Z,88.30
2023-04-09T08:19:56.916Z,88.00
2023-04-09T08:22:29.478Z,90.20
2023-04-09T08:25:01.416Z,90.00
2023-04-09T08:27:33.509Z,90.20
2023-04-09T08:30:04.005Z,89.80
2023-04-09T08:32:34.327Z,87.10
2023-04-09T08:35:04.349Z,84.80
2023-04-09T08:37:36.954Z,82.90
2023-04-09T08:40:07.927Z,82.70
2023-04-09T08:42:39.809Z,84.60
2023-04-09T08:45:11.846Z,85.30
2023-04-09T08:47:44.649Z,86.10
2023-04-09T08:50:14.678Z,85.70
2023-04-09T08:52:50.366Z,87.30
2023-04-09T08:55:20.397Z,85.00
2023-04-09T08:57:50.423Z,86.50
2023-04-09T09:00:20.514Z,84.20
2023-04-09T09:03:07.281Z,83.80
2023-04-09T09:05:42.171Z,83.40
2023-04-09T09:08:16.840Z,81.10
2023-04-09T09:10:48.452Z,80.40
2023-04-09T09:13:25.714Z,79.00
2023-04-09T09:15:57.230Z,80.40
2023-04-09T09:18:42.244Z,77.40
2023-04-09T09:21:15.888Z,76.20
2023-04-09T09:23:51.311Z,75.50
2023-04-09T09:26:23.407Z,77.00
2023-04-09T09:28:55.025Z,78.10
2023-04-09T09:31:26.413Z,78.30
2023-04-09T09:33:57.225Z,75.90
2023-04-09T09:36:37.754Z,78.40
2023-04-09T09:39:13.166Z,76.70
2023-04-09T09:41:44.122Z,78.60
2023-04-09T09:44:35.688Z,77.90
2023-04-09T09:47:06.976Z,77.30
2023-04-09T09:49:37.239Z,74.20
2023-04-09T09:52:12.251Z,73.90
2023-04-09T09:54:46.425Z,75.50
2023-04-09T09:57:19.342Z,75.60
2023-04-09T09:59:56.907Z,73.50
2023-04-09T10:02:31.727Z,75.60
2023-04-09T10:05:04.438Z,80.20
2023-04-09T10:07:36.660Z,79.80
2023-04-09T10:10:13.908Z,81.00
2023-04-09T10:12:45.520Z,77.90
2023-04-09T10:15:16.081Z,74.80
2023-04-09T10:17:48.982Z,73.60
2023-04-09T10:20:22.738Z,75.10
2023-04-09T10:22:55.817Z,76.50
2023-04-09T10:25:29.655Z,75.00
2023-04-09T10:28:03.233Z,75.60
2023-04-09T10:30:37.553Z,75.80
2023-04-09T10:33:14.681Z,73.90
2023-04-09T10:35:45.430Z,68.10
2023-04-09T10:38:17.942Z,65.30
2023-04-09T10:40:54.845Z,61.40
2023-04-09T10:43:25.546Z,65.40
2023-04-09T10:45:55.902Z,68.70
2023-04-09T10:48:27.138Z,71.50
2023-04-09T10:50:58.433Z,73.00
2023-04-09T10:53:31.313Z,73.10
2023-04-09T10:56:04.319Z,74.00
2023-04-09T10:58:34.892Z,75.40
2023-04-09T11:01:05.536Z,76.30
2023-04-09T11:03:46.197Z,76.90
2023-04-09T11:06:18.809Z,77.50
2023-04-09T11:08:48.800Z,78.00
2023-04-09T11:11:21.862Z,77.80
2023-04-09T11:13:52.242Z,73.60
2023-04-09T11:16:24.310Z,70.70
2023-04-09T11:18:56.388Z,72.10
2023-04-09T11:21:31.876Z,71.00
2023-04-09T11:24:02.201Z,69.40
2023-04-09T11:26:40.570Z,71.90
2023-04-09T11:29:11.242Z,71.70
2023-04-09T11:31:41.284Z,69.50
2023-04-09T11:34:14.255Z,70.40
2023-04-09T11:36:44.273Z,68.50
2023-04-09T11:39:14.788Z,70.40
2023-04-09T11:41:48.071Z,69.00
2023-04-09T11:44:18.385Z,66.80
2023-04-09T11:46:49.375Z,64.00
2023-04-09T11:49:20.358Z,65.50
2023-04-09T11:51:51.049Z,65.30
2023-04-09T11:54:21.276Z,65.70
2023-04-09T11:56:56.519Z,64.00
2023-04-09T11:59:26.852Z,63.40
2023-04-09T12:01:57.099Z,62.90
2023-04-09T12:04:27.697Z,64.00
2023-04-09T12:07:02.043Z,61.50
2023-04-09T12:09:33.805Z,61.20
2023-04-09T12:12:11.913Z,60.00
2023-04-09T12:14:49.095Z,58.70
2023-04-09T12:17:18.983Z,57.30
2023-04-09T12:19:51.691Z,57.30
2023-04-09T12:22:21.645Z,57.10
2023-04-09T12:24:52.064Z,59.90
2023-04-09T12:27:24.893Z,62.30
2023-04-09T12:29:54.919Z,63.40
2023-04-09T12:32:24.992Z,62.60
2023-04-09T12:34:55.200Z,61.00
2023-04-09T12:37:25.597Z,60.40
2023-04-09T12:39:55.662Z,61.00
2023-04-09T12:42:28.292Z,62.50
2023-04-09T12:44:58.658Z,63.60
2023-04-09T12:47:29.184Z,65.00
2023-04-09T12:49:59.324Z,65.10
2023-04-09T12:52:29.383Z,64.90
2023-04-09T12:54:59.569Z,66.00
2023-04-09T12:57:32.485Z,66.20
2023-04-09T13:00:04.996Z,67.50
2023-04-09T13:02:35.074Z,69.10
2023-04-09T13:05:05.680Z,69.00
2023-04-09T13:07:36.007Z,69.20
2023-04-09T13:10:06.658Z,68.90
2023-04-09T13:12:39.417Z,67.50
2023-04-09T13:15:10.611Z,65.90
2023-04-09T13:17:43.883Z,63.00
2023-04-09T13:20:14.863Z,60.20
2023-04-09T13:22:49.163Z,62.40
2023-04-09T13:25:19.639Z,62.70
2023-04-09T13:27:52.306Z,64.60
2023-04-09T13:30:22.888Z,65.00
2023-04-09T13:32:53.299Z,63.40
2023-04-09T13:35:23.859Z,62.50
2023-04-09T13:37:53.824Z,62.60
2023-04-09T13:40:24.008Z,62.20
2023-04-09T13:42:56.927Z,59.70
2023-04-09T13:45:27.647Z,59.60
2023-04-09T13:47:57.885Z,59.10
2023-04-09T13:50:28.349Z,59.40
2023-04-09T13:52:58.622Z,59.40
2023-04-09T13:55:28.956Z,60.50
2023-04-09T13:58:01.856Z,60.00
2023-04-09T14:00:32.431Z,58.40
2023-04-09T14:03:03.408Z,58.50
2023-04-09T14:05:33.406Z,57.90
2023-04-09T14:08:04.008Z,58.50
2023-04-09T14:10:34.136Z,57.60
2023-04-09T14:13:10.632Z,57.90
2023-04-09T14:15:42.202Z,58.40
2023-04-09T14:18:12.259Z,58.10
2023-04-09T14:20:42.453Z,58.50
2023-04-09T14:23:13.005Z,57.80
2023-04-09T14:25:43.034Z,58.80
2023-04-09T14:28:15.977Z,58.10
2023-04-09T14:30:46.560Z,58.70
2023-04-09T14:33:16.495Z,59.90
2023-04-09T14:35:46.690Z,60.40
2023-04-09T14:38:17.974Z,61.30
2023-04-09T14:40:48.238Z,62.60
2023-04-09T14:43:21.446Z,63.30
2023-04-09T14:45:52.060Z,65.20
2023-04-09T14:48:22.357Z,65.00
2023-04-09T14:50:52.677Z,65.30
2023-04-09T14:53:22.788Z,63.70
2023-04-09T14:55:52.805Z,62.50
2023-04-09T14:58:25.796Z,61.70
2023-04-09T15:00:57.611Z,60.50
2023-04-09T15:03:32.061Z,59.50
2023-04-09T15:06:02.399Z,58.70
2023-04-09T15:08:32.423Z,58.80
2023-04-09T15:11:02.554Z,59.30
2023-04-09T15:13:35.807Z,59.50
2023-04-09T15:16:06.188Z,60.30
2023-04-09T15:18:37.687Z,61.10
2023-04-09T15:21:08.890Z,61.20
2023-04-09T15:23:39.778Z,61.00
2023-04-09T15:26:10.058Z,61.00
2023-04-09T15:28:42.774Z,60.50
2023-04-09T15:31:12.970Z,60.60
2023-04-09T15:33:45.872Z,61.40
2023-04-09T15:36:15.885Z,60.60
2023-04-09T15:38:46.001Z,60.00
2023-04-09T15:41:17.174Z,58.70
2023-04-09T15:43:49.784Z,59.00
2023-04-09T15:46:20.072Z,60.00
2023-04-09T15:48:50.529Z,59.80
2023-04-09T15:51:20.652Z,59.80
2023-04-09T15:53:50.768Z,61.10
2023-04-09T15:56:21.350Z,62.80
2023-04-09T15:58:54.440Z,62.20
2023-04-09T16:01:24.675Z,62.40
2023-04-09T16:03:55.843Z,60.90
2023-04-09T16:06:26.374Z,61.50
2023-04-09T16:08:56.988Z,61.20
2023-04-09T16:11:26.932Z,61.50
2023-04-09T16:13:59.909Z,61.90
2023-04-09T16:16:30.059Z,62.20
2023-04-09T16:19:01.190Z,62.30
2023-04-09T16:21:31.291Z,61.50
2023-04-09T16:24:01.456Z,61.00
2023-04-09T16:26:31.703Z,61.60
2023-04-09T16:29:04.722Z,60.10
2023-04-09T16:31:35.251Z,60.20
2023-04-09T16:34:05.660Z,60.40
2023-04-09T16:36:37.908Z,61.20
2023-04-09T16:39:08.285Z,61.80
2023-04-09T16:41:38.472Z,61.90
2023-04-09T16:44:11.129Z,62.30
2023-04-09T16:46:41.256Z,62.60
2023-04-09T16:49:11.223Z,62.80
2023-04-09T16:51:41.289Z,62.80
2023-04-09T16:54:11.432Z,62.50
2023-04-09T16:56:41.968Z,62.50
2023-04-09T16:59:18.105Z,62.60
2023-04-09T17:01:49.377Z,62.20
2023-04-09T17:04:19.933Z,62.50
2023-04-09T17:06:50.084Z,64.10
2023-04-09T17:09:20.341Z,64.70
2023-04-09T17:11:53.128Z,65.50
2023-04-09T17:14:27.666Z,66.40
2023-04-09T17:16:57.622Z,67.10
2023-04-09T17:19:28.019Z,67.50
2023-04-09T17:21:58.544Z,68.50
2023-04-09T17:24:29.259Z,69.60
2023-04-09T17:27:00.102Z,70.20
2023-04-09T17:29:33.302Z,71.40
2023-04-09T17:32:03.272Z,72.00
2023-04-09T17:34:33.627Z,73.00
2023-04-09T17:37:03.671Z,73.60
2023-04-09T17:39:34.343Z,74.00
2023-04-09T17:42:05.148Z,73.70
2023-04-09T17:44:38.602Z,74.00
2023-04-09T17:47:09.649Z,74.80
2023-04-09T17:49:39.763Z,75.50
2023-04-09T17:52:09.760Z,75.90
2023-04-09T17:54:40.280Z,76.40
2023-04-09T17:57:11.000Z,77.00
2023-04-09T17:59:43.882Z,77.60
2023-04-09T18:02:14.308Z,78.20
2023-04-09T18:04:44.911Z,78.90
2023-04-09T18:07:15.082Z,79.40
2023-04-09T18:09:45.638Z,80.30
2023-04-09T18:12:16.202Z,80.60
2023-04-09T18:14:50.515Z,81.00
2023-04-09T18:17:20.781Z,81.20
2023-04-09T18:19:51.291Z,81.40
2023-04-09T18:22:21.438Z,81.60
2023-04-09T18:24:52.354Z,82.30
2023-04-09T18:27:22.643Z,82.90
2023-04-09T18:29:56.072Z,84.70
2023-04-09T18:32:27.162Z,85.20
2023-04-09T18:34:57.593Z,85.90
2023-04-09T18:37:28.134Z,86.50
2023-04-09T18:40:00.217Z,87.10
2023-04-09T18:42:31.919Z,87.30
2023-04-09T18:45:04.760Z,87.90
2023-04-09T18:47:34.988Z,88.40
2023-04-09T18:50:05.464Z,89.00
2023-04-09T18:52:38.672Z,90.00
2023-04-09T18:55:09.957Z,90.60
2023-04-09T18:57:40.103Z,91.20
2023-04-09T19:00:15.096Z,92.30
2023-04-09T19:02:45.654Z,93.70
2023-04-09T19:05:16.024Z,93.90
2023-04-09T19:07:46.363Z,94.60
2023-04-09T19:10:16.595Z,94.80
2023-04-09T19:12:51.106Z,95.70
2023-04-09T19:15:26.266Z,95.80
2023-04-09T19:17:56.689Z,96.40
2023-04-09T19:20:27.371Z,97.30
2023-04-09T19:22:58.559Z,97.00
2023-04-09T19:25:28.928Z,97.60
2023-04-09T19:27:59.071Z,98.20
2023-04-09T19:30:32.139Z,98.50
2023-04-09T19:33:02.428Z,98.60
